Grizzly, Oregon
Current Conditions -  °F | °C
As of 10:55 PM on Saturday 25 Oct 2014 (Local Time) from KS39 Reporting Station
Few Clouds Few Clouds  
Wind Chill:   Ceiling: Unl
Heat Index:   Visibility: 10mi
Dew Point:   Wind: 10mph
Humidity: 76%   Direction: 220°SW
Pressure: 29.91"   Gusts: NA
Location:  44.5°N, 120.92°W
Report Text: KS39 260555Z AUTO 22009KT 10SM FEW043 FEW050 07/03 A2991 RMK AO2
Loading
Personal Weather Stations






























Interactive Weather Map
Tropical Storm Tracking
New forecast layout! Learn more

10-Day Weather Forecast

Advertisements
Track Severe Weather on mobile